createdAt,value
2019-03-18T00:01:06.536Z,2.90
2019-03-18T00:03:35.781Z,2.43
2019-03-18T00:06:04.935Z,2.80
2019-03-18T00:08:34.166Z,2.50
2019-03-18T00:11:03.352Z,2.87
2019-03-18T00:13:32.474Z,2.73
2019-03-18T00:16:01.457Z,3.10
2019-03-18T00:18:30.525Z,2.97
2019-03-18T00:20:59.502Z,2.67
2019-03-18T00:23:28.618Z,2.93
2019-03-18T00:25:57.592Z,2.80
2019-03-18T00:28:26.618Z,2.77
2019-03-18T00:30:55.652Z,3.07
2019-03-18T00:33:24.751Z,3.00
2019-03-18T00:35:53.783Z,2.90
2019-03-18T00:38:22.751Z,3.03
2019-03-18T00:40:51.732Z,3.07
2019-03-18T00:46:15.585Z,3.23
2019-03-18T00:48:44.664Z,2.97
2019-03-18T00:51:13.860Z,3.10
2019-03-18T00:53:42.962Z,3.20
2019-03-18T00:56:12.024Z,3.33
2019-03-18T00:58:41.072Z,3.03
2019-03-18T01:01:10.564Z,3.10
2019-03-18T01:03:39.567Z,3.20
2019-03-18T01:06:08.590Z,3.30
2019-03-18T01:08:37.637Z,3.00
2019-03-18T01:11:07.071Z,3.17
2019-03-18T01:13:36.040Z,3.37
2019-03-18T01:16:05.124Z,3.53
2019-03-18T01:18:34.022Z,3.80
2019-03-18T01:21:03.012Z,3.67
2019-03-18T01:23:31.995Z,3.77
2019-03-18T01:26:00.980Z,3.70
2019-03-18T01:28:30.039Z,3.40
2019-03-18T01:30:59.116Z,3.77
2019-03-18T01:33:28.083Z,4.00
2019-03-18T01:35:57.156Z,3.77
2019-03-18T01:38:26.242Z,3.60
2019-03-18T01:40:55.264Z,3.43
2019-03-18T01:43:24.370Z,3.73
2019-03-18T01:45:53.436Z,3.70
2019-03-18T01:48:22.546Z,4.07
2019-03-18T01:50:51.517Z,3.90
2019-03-18T01:53:20.485Z,3.90
2019-03-18T01:55:49.447Z,3.33
2019-03-18T01:58:18.357Z,3.73
2019-03-18T02:00:47.352Z,3.93
2019-03-18T02:03:16.323Z,3.73
2019-03-18T02:05:45.297Z,3.70
2019-03-18T02:08:14.281Z,3.57
2019-03-18T02:10:43.362Z,3.70
2019-03-18T02:13:12.398Z,3.50
2019-03-18T02:15:52.819Z,3.90
2019-03-18T02:18:12.306Z,3.37
2019-03-18T02:20:41.352Z,2.90
2019-03-18T02:23:10.367Z,2.67
2019-03-18T02:25:39.335Z,3.00
2019-03-18T02:28:08.463Z,2.87
2019-03-18T02:30:37.526Z,2.87
2019-03-18T02:33:06.561Z,2.63
2019-03-18T02:35:35.539Z,2.23
2019-03-18T02:38:04.597Z,2.70
2019-03-18T02:40:33.560Z,2.80
2019-03-18T02:43:02.596Z,2.33
2019-03-18T02:45:31.650Z,2.67
2019-03-18T02:48:00.632Z,2.50
2019-03-18T02:50:29.691Z,2.80
2019-03-18T02:52:58.682Z,2.73
2019-03-18T02:55:27.649Z,2.80
2019-03-18T02:57:56.630Z,2.50
2019-03-18T03:00:25.750Z,2.70
2019-03-18T03:02:54.805Z,2.60
2019-03-18T03:05:23.881Z,2.40
2019-03-18T03:07:52.934Z,2.40
2019-03-18T03:10:22.139Z,2.33
2019-03-18T03:12:51.145Z,2.10
2019-03-18T03:15:20.273Z,2.33
2019-03-18T03:17:49.309Z,2.77
2019-03-18T03:20:18.273Z,2.30
2019-03-18T03:22:47.210Z,2.50
2019-03-18T03:25:16.303Z,2.50
2019-03-18T03:27:45.265Z,2.37
2019-03-18T03:30:14.696Z,2.70
2019-03-18T03:32:43.720Z,2.70
2019-03-18T03:35:12.856Z,3.00
2019-03-18T03:37:41.982Z,2.60
2019-03-18T03:40:11.159Z,2.80
2019-03-18T03:42:40.371Z,2.73
2019-03-18T03:45:09.620Z,2.50
2019-03-18T03:47:38.737Z,2.60
2019-03-18T03:50:07.892Z,2.47
2019-03-18T03:52:36.876Z,2.57
2019-03-18T03:55:06.179Z,2.80
2019-03-18T03:57:35.197Z,2.60
2019-03-18T04:00:05.335Z,2.50
2019-03-18T04:02:34.409Z,2.60
2019-03-18T04:05:03.434Z,2.60
2019-03-18T04:07:32.448Z,2.60
2019-03-18T04:10:01.470Z,2.60
2019-03-18T04:12:30.552Z,2.73
2019-03-18T04:14:59.533Z,3.27
2019-03-18T04:17:28.583Z,2.80
2019-03-18T04:19:57.722Z,2.57
2019-03-18T04:22:26.771Z,2.83
2019-03-18T04:24:55.826Z,2.70
2019-03-18T04:27:25.109Z,2.53
2019-03-18T04:29:54.405Z,2.80
2019-03-18T04:32:23.417Z,2.47
2019-03-18T04:34:52.367Z,2.77
2019-03-18T04:37:21.402Z,2.50
2019-03-18T04:39:50.341Z,2.50
2019-03-18T04:42:19.328Z,2.40
2019-03-18T04:44:48.380Z,2.30
2019-03-18T04:47:17.366Z,2.40
2019-03-18T04:49:46.413Z,3.13
2019-03-18T04:52:15.510Z,2.57
2019-03-18T04:54:44.560Z,2.43
2019-03-18T04:57:13.592Z,2.30
2019-03-18T04:59:42.626Z,2.23
2019-03-18T05:02:11.663Z,2.40
2019-03-18T05:04:40.609Z,2.23
2019-03-18T05:07:09.584Z,2.30
2019-03-18T05:09:38.621Z,2.60
2019-03-18T05:12:07.606Z,2.50
2019-03-18T05:14:36.698Z,2.37
2019-03-18T05:17:05.799Z,2.30
2019-03-18T05:19:34.839Z,2.40
2019-03-18T05:22:03.914Z,2.27
2019-03-18T05:24:32.957Z,2.30
2019-03-18T05:27:01.898Z,2.77
2019-03-18T05:29:30.944Z,2.40
2019-03-18T05:31:59.881Z,3.10
2019-03-18T05:34:28.832Z,2.80
2019-03-18T05:36:57.815Z,2.67
2019-03-18T05:39:26.927Z,2.67
2019-03-18T05:41:55.973Z,2.60
2019-03-18T05:44:24.996Z,2.80
2019-03-18T05:46:54.034Z,2.43
2019-03-18T05:49:23.090Z,2.60
2019-03-18T05:51:52.083Z,2.60
2019-03-18T05:54:21.103Z,2.60
2019-03-18T05:56:50.154Z,2.73
2019-03-18T05:59:19.280Z,3.07
2019-03-18T06:01:48.362Z,2.43
2019-03-18T06:04:17.421Z,2.83
2019-03-18T06:06:46.486Z,3.00
2019-03-18T06:09:15.510Z,2.97
2019-03-18T06:11:44.556Z,2.70
2019-03-18T06:14:13.620Z,2.60
2019-03-18T06:16:42.540Z,2.83
2019-03-18T06:19:11.696Z,2.80
2019-03-18T06:21:40.782Z,2.30
2019-03-18T06:24:09.834Z,2.70
2019-03-18T06:26:38.855Z,2.77
2019-03-18T06:29:08.022Z,2.83
2019-03-18T06:31:37.436Z,3.40
2019-03-18T06:34:06.538Z,3.00
2019-03-18T06:36:35.607Z,2.70
2019-03-18T06:39:06.523Z,2.50
2019-03-18T06:41:35.785Z,2.30
2019-03-18T06:44:04.843Z,2.07
2019-03-18T06:46:33.931Z,2.03
2019-03-18T06:49:03.040Z,2.10
2019-03-18T06:51:32.137Z,2.40
2019-03-18T06:54:01.366Z,2.30
2019-03-18T06:56:30.362Z,2.20
2019-03-18T06:58:59.588Z,2.30
2019-03-18T07:01:28.731Z,2.43
2019-03-18T07:03:57.811Z,2.47
2019-03-18T07:06:26.792Z,2.47
2019-03-18T07:08:55.885Z,2.50
2019-03-18T07:11:24.967Z,2.33
2019-03-18T07:13:54.036Z,2.63
2019-03-18T07:16:23.127Z,2.90
2019-03-18T07:18:52.228Z,2.50
2019-03-18T07:21:21.267Z,2.47
2019-03-18T07:23:50.252Z,2.80
2019-03-18T07:26:19.340Z,2.73
2019-03-18T07:28:48.508Z,2.90
2019-03-18T07:31:17.638Z,2.90
2019-03-18T07:33:46.726Z,3.13
2019-03-18T07:36:15.833Z,2.80
2019-03-18T07:38:44.871Z,2.90
2019-03-18T07:41:13.975Z,3.00
2019-03-18T07:43:43.188Z,3.07
2019-03-18T07:46:12.252Z,2.97
2019-03-18T07:48:41.354Z,3.30
2019-03-18T07:51:10.489Z,3.40
2019-03-18T07:53:39.650Z,3.47
2019-03-18T07:56:08.783Z,3.13
2019-03-18T07:58:37.855Z,3.30
2019-03-18T08:01:06.946Z,3.00
2019-03-18T08:03:36.750Z,2.67
2019-03-18T08:06:06.020Z,3.00
2019-03-18T08:08:35.118Z,2.90
2019-03-18T08:11:04.296Z,3.17
2019-03-18T08:13:33.438Z,2.60
2019-03-18T08:16:02.504Z,3.20
2019-03-18T08:18:42.754Z,2.73
2019-03-18T08:21:02.267Z,2.73
2019-03-18T08:23:31.371Z,2.73
2019-03-18T08:26:00.587Z,2.97
2019-03-18T08:28:29.765Z,3.17
2019-03-18T08:30:58.766Z,3.00
2019-03-18T08:33:27.747Z,2.70
2019-03-18T08:35:56.818Z,3.00
2019-03-18T08:38:25.780Z,3.20
2019-03-18T08:40:54.818Z,2.90
2019-03-18T08:43:23.893Z,3.10
2019-03-18T08:45:52.927Z,3.00
2019-03-18T08:48:22.055Z,3.17
2019-03-18T08:50:51.115Z,3.03
2019-03-18T08:53:20.198Z,2.57
2019-03-18T08:55:49.272Z,2.70
2019-03-18T08:58:18.327Z,3.43
2019-03-18T09:00:47.470Z,3.20
2019-03-18T09:03:16.464Z,2.90
2019-03-18T09:05:45.550Z,2.77
2019-03-18T09:08:14.532Z,3.10
2019-03-18T09:10:43.587Z,2.63
2019-03-18T09:13:12.631Z,3.00
2019-03-18T09:15:41.915Z,2.67
2019-03-18T09:18:10.956Z,2.57
2019-03-18T09:20:40.150Z,2.73
2019-03-18T09:23:09.210Z,2.53
2019-03-18T09:25:38.384Z,2.50
2019-03-18T09:28:07.418Z,2.60
2019-03-18T09:30:36.490Z,2.87
2019-03-18T09:33:05.614Z,2.37
2019-03-18T09:35:34.725Z,2.60
2019-03-18T09:38:03.872Z,2.33
2019-03-18T09:40:33.080Z,2.50
2019-03-18T09:43:02.251Z,2.70
2019-03-18T09:45:31.361Z,2.23
2019-03-18T09:48:00.539Z,2.80
2019-03-18T09:50:29.620Z,2.40
2019-03-18T09:52:58.730Z,2.73
2019-03-18T09:55:27.724Z,2.47
2019-03-18T09:57:56.778Z,2.53
2019-03-18T10:00:25.861Z,2.60
2019-03-18T10:02:54.948Z,2.37
2019-03-18T10:05:24.142Z,2.30
2019-03-18T10:07:53.123Z,2.60
2019-03-18T10:10:22.194Z,2.30
2019-03-18T10:12:51.159Z,2.20
2019-03-18T10:15:20.205Z,2.83
2019-03-18T10:17:49.304Z,2.37
2019-03-18T10:20:18.440Z,2.60
2019-03-18T10:22:47.557Z,2.33
2019-03-18T10:25:16.687Z,2.47
2019-03-18T10:27:45.828Z,2.20
2019-03-18T10:30:14.999Z,2.47
2019-03-18T10:32:44.212Z,2.97
2019-03-18T10:35:13.589Z,2.93
2019-03-18T10:37:42.800Z,2.53
2019-03-18T10:40:12.009Z,2.90
2019-03-18T10:42:41.063Z,2.40
2019-03-18T10:45:10.395Z,2.33
2019-03-18T10:47:39.445Z,2.63
2019-03-18T10:50:09.061Z,2.50
2019-03-18T10:52:38.120Z,2.70
2019-03-18T10:55:08.273Z,2.47
2019-03-18T10:57:37.441Z,2.27
2019-03-18T11:00:07.028Z,2.10
2019-03-18T11:02:36.023Z,2.20
2019-03-18T11:05:08.021Z,1.80
2019-03-18T11:07:36.324Z,2.30
2019-03-18T11:10:06.188Z,2.13
2019-03-18T11:12:35.277Z,1.90
2019-03-18T11:15:04.886Z,2.63
2019-03-18T11:17:34.018Z,1.90
2019-03-18T11:20:03.191Z,2.00
2019-03-18T11:22:32.327Z,2.17
2019-03-18T11:25:01.441Z,2.43
2019-03-18T11:27:30.613Z,2.23
2019-03-18T11:29:59.787Z,2.60
2019-03-18T11:32:29.015Z,2.60
2019-03-18T11:34:58.009Z,2.70
2019-03-18T11:37:27.155Z,2.17
2019-03-18T11:39:56.308Z,2.43
2019-03-18T11:42:25.366Z,2.00
2019-03-18T11:44:54.498Z,2.57
2019-03-18T11:47:23.615Z,2.23
2019-03-18T11:49:52.619Z,2.07
2019-03-18T11:52:21.733Z,2.30
2019-03-18T11:54:50.857Z,2.10
2019-03-18T11:57:20.061Z,2.40
2019-03-18T11:59:49.174Z,2.57
2019-03-18T12:02:27.191Z,2.70
2019-03-18T12:04:48.965Z,2.57
2019-03-18T12:07:18.078Z,2.43
2019-03-18T12:09:47.234Z,2.17
2019-03-18T12:12:16.343Z,2.20
2019-03-18T12:14:45.403Z,1.90
2019-03-18T12:17:14.493Z,1.63
2019-03-18T12:19:43.655Z,2.10
2019-03-18T12:22:12.719Z,1.90
2019-03-18T12:24:41.721Z,1.93
2019-03-18T12:27:30.003Z,2.30
2019-03-18T12:29:59.209Z,1.63
2019-03-18T12:32:28.497Z,1.97
2019-03-18T12:34:57.580Z,2.13
2019-03-18T12:37:26.686Z,2.43
2019-03-18T12:39:55.783Z,1.90
2019-03-18T12:42:24.859Z,1.80
2019-03-18T12:44:53.942Z,2.03
2019-03-18T12:47:23.032Z,1.67
2019-03-18T12:49:52.093Z,1.30
2019-03-18T12:52:21.187Z,1.53
2019-03-18T12:54:50.256Z,1.60
2019-03-18T12:57:19.407Z,1.87
2019-03-18T12:59:48.618Z,1.60
2019-03-18T13:02:17.692Z,1.70
2019-03-18T13:04:46.908Z,1.70
2019-03-18T13:07:15.936Z,1.90
2019-03-18T13:09:45.067Z,2.00
2019-03-18T13:12:14.139Z,1.43
2019-03-18T13:14:43.221Z,1.73
2019-03-18T13:17:12.319Z,1.60
2019-03-18T13:19:42.621Z,1.80
2019-03-18T13:22:11.784Z,1.60
2019-03-18T13:24:40.961Z,1.97
2019-03-18T13:27:10.094Z,2.13
2019-03-18T13:29:39.304Z,2.30
2019-03-18T13:32:08.529Z,1.93
2019-03-18T13:34:37.811Z,2.10
2019-03-18T13:37:07.023Z,2.00
2019-03-18T13:39:37.059Z,2.03
2019-03-18T13:42:06.242Z,1.53
2019-03-18T13:44:35.463Z,1.80
2019-03-18T13:47:04.734Z,1.60
2019-03-18T13:49:33.968Z,2.00
2019-03-18T13:52:03.336Z,1.60
2019-03-18T13:54:32.618Z,1.70
2019-03-18T13:57:01.740Z,2.23
2019-03-18T13:59:30.827Z,2.20
2019-03-18T14:01:59.969Z,1.63
2019-03-18T14:04:29.119Z,2.03
2019-03-18T14:06:58.351Z,2.40
2019-03-18T14:09:27.482Z,2.17
2019-03-18T14:11:56.731Z,2.20
2019-03-18T14:14:25.857Z,2.00
2019-03-18T14:16:55.022Z,2.00
2019-03-18T14:19:24.233Z,2.00
2019-03-18T14:21:53.464Z,1.60
2019-03-18T14:24:22.573Z,1.97
2019-03-18T14:26:51.798Z,1.37
2019-03-18T14:29:20.966Z,1.90
2019-03-18T14:31:50.170Z,1.40
2019-03-18T14:34:19.254Z,1.80
2019-03-18T14:36:48.452Z,1.60
2019-03-18T14:39:17.662Z,1.70
2019-03-18T14:41:46.841Z,2.00
2019-03-18T14:44:15.970Z,1.90
2019-03-18T14:46:45.117Z,1.50
2019-03-18T14:49:14.290Z,1.60
2019-03-18T14:51:46.063Z,1.57
2019-03-18T14:54:14.175Z,1.87
2019-03-18T14:56:43.430Z,1.77
2019-03-18T14:59:12.562Z,1.40
2019-03-18T15:01:41.758Z,2.00
2019-03-18T15:04:10.951Z,1.60
2019-03-18T15:06:40.115Z,1.40
2019-03-18T15:09:09.566Z,1.53
2019-03-18T15:11:38.725Z,1.10
2019-03-18T15:14:08.280Z,0.90
2019-03-18T15:16:37.392Z,1.10
2019-03-18T15:19:06.578Z,1.10
2019-03-18T15:21:35.851Z,1.13
2019-03-18T15:24:16.470Z,1.27
2019-03-18T15:26:35.976Z,1.17
2019-03-18T15:29:05.086Z,1.30
2019-03-18T15:31:34.175Z,1.10
2019-03-18T15:34:03.636Z,1.10
2019-03-18T15:36:32.838Z,1.00
2019-03-18T15:39:02.066Z,1.00
2019-03-18T15:41:31.214Z,0.70
2019-03-18T15:44:00.222Z,0.90
2019-03-18T15:46:29.433Z,1.13
2019-03-18T15:48:58.438Z,1.00
2019-03-18T15:51:27.637Z,1.00
2019-03-18T15:53:56.805Z,1.00
2019-03-18T15:56:25.998Z,1.17
2019-03-18T15:58:55.327Z,1.00
2019-03-18T16:01:24.387Z,1.30
2019-03-18T16:03:53.467Z,1.80
2019-03-18T16:06:22.656Z,1.47
2019-03-18T16:08:51.800Z,1.10
2019-03-18T16:11:20.877Z,1.30
2019-03-18T16:13:50.003Z,1.20
2019-03-18T16:16:19.164Z,1.23
2019-03-18T16:18:48.262Z,2.10
2019-03-18T16:21:17.485Z,1.70
2019-03-18T16:23:46.611Z,1.50
2019-03-18T16:26:15.683Z,1.20
2019-03-18T16:28:44.875Z,1.70
2019-03-18T16:31:13.916Z,1.50
2019-03-18T16:33:43.136Z,2.07
2019-03-18T16:36:12.403Z,1.30
2019-03-18T16:38:41.382Z,1.20
2019-03-18T16:41:12.849Z,1.33
2019-03-18T16:43:42.011Z,1.30
2019-03-18T16:46:11.075Z,1.50
2019-03-18T16:48:40.109Z,0.90
2019-03-18T16:51:09.182Z,1.20
2019-03-18T16:53:38.281Z,1.00
2019-03-18T16:56:07.432Z,1.40
2019-03-18T16:58:36.512Z,1.03
2019-03-18T17:01:05.582Z,1.40
2019-03-18T17:03:34.792Z,1.40
2019-03-18T17:06:03.908Z,1.13
2019-03-18T17:08:33.147Z,1.60
2019-03-18T17:11:02.161Z,1.63
2019-03-18T17:13:31.189Z,1.23
2019-03-18T17:16:00.296Z,1.47
2019-03-18T17:18:29.494Z,1.83
2019-03-18T17:20:58.640Z,1.63
2019-03-18T17:23:27.725Z,1.67
2019-03-18T17:25:56.844Z,1.73
2019-03-18T17:28:25.909Z,2.07
2019-03-18T17:30:54.955Z,1.60
2019-03-18T17:33:24.048Z,1.53
2019-03-18T17:35:53.153Z,1.00
2019-03-18T17:38:22.199Z,1.70
2019-03-18T17:40:51.277Z,1.30
2019-03-18T17:43:20.360Z,1.20
2019-03-18T17:45:49.692Z,1.90
2019-03-18T17:48:18.782Z,1.33
2019-03-18T17:50:47.928Z,1.67
2019-03-18T17:53:17.078Z,1.50
2019-03-18T17:55:46.115Z,1.43
2019-03-18T17:58:15.277Z,1.60
2019-03-18T18:00:47.333Z,1.70
2019-03-18T18:03:16.390Z,1.90
2019-03-18T18:05:45.616Z,1.87
2019-03-18T18:08:14.702Z,1.73
2019-03-18T18:10:44.011Z,1.97
2019-03-18T18:13:13.142Z,2.07
2019-03-18T18:15:42.393Z,1.80
2019-03-18T18:18:11.561Z,2.17
2019-03-18T18:20:40.695Z,1.73
2019-03-18T18:23:14.576Z,1.60
2019-03-18T18:25:40.747Z,2.23
2019-03-18T18:28:09.969Z,2.37
2019-03-18T18:30:39.067Z,2.00
2019-03-18T18:33:08.351Z,1.90
2019-03-18T18:35:37.625Z,2.07
2019-03-18T18:38:06.817Z,2.00
2019-03-18T18:40:35.989Z,1.87
2019-03-18T18:43:05.281Z,2.10
2019-03-18T18:48:20.190Z,2.13
2019-03-18T18:50:50.808Z,2.33
2019-03-18T18:53:26.195Z,2.40
2019-03-18T18:55:51.601Z,2.60
2019-03-18T18:58:20.881Z,2.50
2019-03-18T19:00:50.066Z,1.93
2019-03-18T19:03:38.387Z,2.27
2019-03-18T19:06:07.559Z,2.50
2019-03-18T19:08:36.670Z,2.67
2019-03-18T19:11:05.893Z,1.90
2019-03-18T19:13:35.519Z,2.03
2019-03-18T19:16:05.160Z,2.40
2019-03-18T19:18:38.005Z,2.30
2019-03-18T19:21:05.274Z,2.30
2019-03-18T19:26:37.073Z,2.67
2019-03-18T19:29:06.226Z,2.63
2019-03-18T19:31:35.219Z,2.50
2019-03-18T19:34:04.532Z,2.30
2019-03-18T19:36:33.610Z,2.23
2019-03-18T19:39:03.088Z,3.00
2019-03-18T19:41:32.228Z,2.27
2019-03-18T19:44:01.289Z,2.47
2019-03-18T19:46:30.432Z,2.70
2019-03-18T19:48:59.520Z,2.40
2019-03-18T19:51:28.607Z,2.87
2019-03-18T19:53:57.692Z,2.43
2019-03-18T19:56:26.740Z,2.70
2019-03-18T19:58:56.065Z,2.20
2019-03-18T20:01:25.240Z,2.20
2019-03-18T20:03:54.685Z,2.40
2019-03-18T20:06:23.816Z,2.57
2019-03-18T20:08:53.047Z,2.60
2019-03-18T20:11:22.179Z,2.50
2019-03-18T20:13:52.727Z,2.40
2019-03-18T20:16:24.421Z,2.70
2019-03-18T20:18:55.098Z,2.70
2019-03-18T20:21:24.165Z,2.50
2019-03-18T20:24:00.851Z,2.27
2019-03-18T20:26:23.951Z,1.73
2019-03-18T20:28:53.040Z,2.80
2019-03-18T20:31:25.934Z,2.23
2019-03-18T20:33:53.078Z,2.17
2019-03-18T20:36:22.199Z,2.60
2019-03-18T20:38:51.243Z,2.33
2019-03-18T20:41:20.391Z,2.23
2019-03-18T20:43:49.611Z,2.07
2019-03-18T20:46:18.827Z,2.37
2019-03-18T20:48:47.939Z,3.00
2019-03-18T20:51:17.861Z,1.87
2019-03-18T20:53:46.982Z,1.80
2019-03-18T20:56:16.711Z,2.30
2019-03-18T20:58:45.895Z,2.37
2019-03-18T21:01:14.979Z,2.20
2019-03-18T21:03:44.077Z,2.13
2019-03-18T21:06:13.245Z,2.10
2019-03-18T21:08:43.030Z,2.47
2019-03-18T21:11:12.189Z,2.20
2019-03-18T21:13:41.964Z,1.90
2019-03-18T21:16:11.895Z,2.10
2019-03-18T21:18:44.280Z,2.50
2019-03-18T21:21:13.384Z,2.23
2019-03-18T21:23:42.535Z,2.20
2019-03-18T21:26:12.496Z,1.83
2019-03-18T21:28:41.766Z,2.40
2019-03-18T21:31:11.010Z,2.20
2019-03-18T21:33:40.261Z,2.40
2019-03-18T21:36:09.411Z,2.40
2019-03-18T21:38:38.587Z,2.73
2019-03-18T21:41:07.841Z,2.00
2019-03-18T21:43:37.117Z,2.43
2019-03-18T21:46:06.720Z,2.30
2019-03-18T21:48:35.896Z,2.10
2019-03-18T21:51:05.197Z,2.27
2019-03-18T21:53:34.230Z,2.43
2019-03-18T21:56:03.361Z,2.27
2019-03-18T21:58:33.170Z,2.30
2019-03-18T22:01:02.923Z,2.30
2019-03-18T22:03:31.911Z,2.17
2019-03-18T22:06:01.047Z,2.57
2019-03-18T22:08:30.034Z,2.50
2019-03-18T22:10:59.101Z,2.00
2019-03-18T22:13:28.162Z,2.50
2019-03-18T22:15:57.310Z,2.53
2019-03-18T22:18:26.446Z,2.47
2019-03-18T22:20:56.483Z,2.23
2019-03-18T22:23:25.541Z,2.87
2019-03-18T22:25:54.708Z,2.37
2019-03-18T22:28:23.761Z,2.70
2019-03-18T22:30:52.944Z,2.20
2019-03-18T22:33:22.260Z,2.10
2019-03-18T22:35:51.343Z,2.37
2019-03-18T22:38:20.390Z,2.50
2019-03-18T22:40:49.537Z,2.73
2019-03-18T22:43:18.620Z,2.70
2019-03-18T22:45:47.622Z,2.37
2019-03-18T22:48:16.755Z,2.80
2019-03-18T22:50:45.887Z,2.10
2019-03-18T22:53:14.937Z,2.40
2019-03-18T22:55:44.044Z,2.43
2019-03-18T22:58:13.031Z,2.50
2019-03-18T23:00:49.895Z,2.40
2019-03-18T23:03:19.048Z,2.57
2019-03-18T23:05:48.130Z,2.70
2019-03-18T23:08:17.255Z,2.70
2019-03-18T23:10:46.397Z,2.23
2019-03-18T23:13:15.519Z,3.23
2019-03-18T23:15:44.570Z,3.53
2019-03-18T23:18:13.551Z,2.47
2019-03-18T23:20:42.573Z,3.13
2019-03-18T23:23:11.563Z,2.50
2019-03-18T23:25:40.686Z,2.50
2019-03-18T23:28:09.788Z,2.50
2019-03-18T23:30:38.843Z,2.30
2019-03-18T23:33:07.866Z,2.53
2019-03-18T23:35:36.931Z,2.60
2019-03-18T23:38:06.025Z,2.87
2019-03-18T23:40:35.192Z,2.60
2019-03-18T23:43:04.269Z,2.40
2019-03-18T23:45:33.711Z,2.07
2019-03-18T23:48:02.889Z,3.00
2019-03-18T23:50:31.977Z,3.03
2019-03-18T23:53:01.113Z,2.60
2019-03-18T23:55:30.310Z,2.60
2019-03-18T23:57:59.417Z,2.63
